Time;durP1;ratioP1;P1;durP2;ratioP2;P2;SDS_P1;SDS_P2;PMS_P1;PMS_P2;Temp;Humidity;BMP_temperature;BMP_pressure;BME280_temperature;BME280_humidity;BME280_pressure;Samples;Min_cycle;Max_cycle;Signal;HPM_P1;HPM_P2
2024/02/25 00:01:44;;;;;;;44.50;41.67;;;;;;;;;;4181511;28;20524;-56
2024/02/25 00:03:46;;;;;;;128.43;43.55;;;;;;;;;;4181381;28;20459;-57
2024/02/25 00:05:48;;;;;;;41.53;39.10;;;;;;;;;;4181690;28;20597;-56
2024/02/25 00:07:51;;;;;;;124.28;42.35;;;;;;;;;;4181694;28;20044;-56
2024/02/25 00:09:53;;;;;;;53.88;37.00;;;;;;;;;;4181726;28;20041;-57
2024/02/25 00:11:55;;;;;;;146.45;43.40;;;;;;;;;;4181487;28;20075;-56
2024/02/25 00:13:56;;;;;;;86.90;44.25;;;;;;;;;;4181625;28;20116;-56
2024/02/25 00:15:58;;;;;;;64.28;41.13;;;;;;;;;;4181506;28;20517;-57
2024/02/25 00:18:00;;;;;;;38.97;36.03;;;;;;;;;;4180954;28;20045;-56
2024/02/25 00:20:02;;;;;;;60.67;37.13;;;;;;;;;;4181267;28;20298;-56
2024/02/25 00:22:05;;;;;;;70.27;39.37;;;;;;;;;;4181309;28;20394;-56
2024/02/25 00:24:06;;;;;;;;;;;;;;;;;;4181787;28;20694;-57
2024/02/25 00:26:09;;;;;;;93.43;40.20;;;;;;;;;;4181431;28;20432;-57
2024/02/25 00:28:11;;;;;;;41.35;37.55;;;;;;;;;;4181519;28;20175;-57
2024/02/25 00:30:13;;;;;;;43.00;39.20;;;;;;;;;;4181626;28;20053;-57
2024/02/25 00:32:15;;;;;;;64.57;41.13;;;;;;;;;;4181161;28;20044;-56
2024/02/25 00:34:16;;;;;;;46.50;41.63;;;;;;;;;;4163672;28;20276;-57
2024/02/25 00:36:18;;;;;;;42.47;39.73;;;;;;;;;;4181211;28;20043;-57
2024/02/25 00:38:19;;;;;;;41.45;37.75;;;;;;;;;;4181118;28;20134;-56
2024/02/25 00:40:21;;;;;;;66.13;40.23;;;;;;;;;;4181426;28;20045;-57
2024/02/25 00:42:24;;;;;;;60.45;40.25;;;;;;;;;;4180612;28;20049;-57
2024/02/25 00:44:26;;;;;;;58.67;36.63;;;;;;;;;;4180122;28;20047;-57
2024/02/25 00:46:28;;;;;;;52.55;38.85;;;;;;;;;;4179796;28;20048;-56
2024/02/25 00:48:30;;;;;;;118.57;40.75;;;;;;;;;;4179581;28;20041;-55
2024/02/25 00:50:32;;;;;;;50.95;40.53;;;;;;;;;;4179693;28;20404;-56
2024/02/25 00:52:34;;;;;;;56.70;41.40;;;;;;;;;;4179929;28;20043;-56
2024/02/25 00:54:37;;;;;;;97.47;39.45;;;;;;;;;;4179850;28;20053;-57
2024/02/25 00:56:38;;;;;;;66.63;37.35;;;;;;;;;;4179541;28;20033;-55
2024/02/25 00:58:40;;;;;;;43.55;37.70;;;;;;;;;;4180102;28;20500;-57
2024/02/25 01:00:42;;;;;;;184.45;45.80;;;;;;;;;;4180997;28;20118;-57
2024/02/25 01:02:45;;;;;;;71.27;40.73;;;;;;;;;;4180804;28;20048;-56
2024/02/25 01:04:47;;;;;;;46.80;38.13;;;;;;;;;;4180639;28;20103;-56
2024/02/25 01:06:49;;;;;;;56.20;37.15;;;;;;;;;;4180904;28;20068;-56
2024/02/25 01:08:50;;;;;;;38.40;35.47;;;;;;;;;;4163038;28;20529;-56
2024/02/25 01:10:52;;;;;;;60.60;34.97;;;;;;;;;;4180776;28;20076;-56
2024/02/25 01:12:54;;;;;;;90.40;34.93;;;;;;;;;;4180648;28;20048;-57
2024/02/25 01:14:55;;;;;;;53.47;35.40;;;;;;;;;;4180931;28;20759;-57
2024/02/25 01:16:57;;;;;;;38.40;34.85;;;;;;;;;;4180550;28;20037;-57
2024/02/25 01:18:59;;;;;;;49.28;33.88;;;;;;;;;;4180744;28;20459;-57
2024/02/25 01:21:01;;;;;;;38.97;35.63;;;;;;;;;;4180748;28;20037;-57
2024/02/25 01:23:03;;;;;;;104.07;37.03;;;;;;;;;;4180660;28;20082;-56
2024/02/25 01:25:05;;;;;;;63.40;38.30;;;;;;;;;;4162941;28;20045;-55
2024/02/25 01:27:07;;;;;;;152.15;39.15;;;;;;;;;;4180664;28;20037;-57
2024/02/25 01:29:08;;;;;;;165.47;42.30;;;;;;;;;;4181661;28;20037;-55
2024/02/25 01:31:10;;;;;;;52.30;34.10;;;;;;;;;;4184202;28;20333;-57
2024/02/25 01:33:11;;;;;;;141.63;43.70;;;;;;;;;;4184149;28;20037;-57
2024/02/25 01:35:13;;;;;;;141.80;40.08;;;;;;;;;;4183840;28;20504;-57
2024/02/25 01:37:16;;;;;;;39.92;36.67;;;;;;;;;;4166215;28;20053;-57
2024/02/25 01:39:18;;;;;;;;;;;;;;;;;;4184533;28;20044;-56
2024/02/25 01:41:20;;;;;;;150.32;39.05;;;;;;;;;;4183959;28;19928;-57
2024/02/25 01:43:22;;;;;;;38.83;36.27;;;;;;;;;;4183950;28;20045;-57
2024/02/25 01:45:23;;;;;;;49.43;33.50;;;;;;;;;;4183823;28;20413;-57
2024/02/25 01:47:25;;;;;;;40.95;35.50;;;;;;;;;;4183831;28;20496;-57
2024/02/25 01:49:27;;;;;;;91.60;33.55;;;;;;;;;;4184083;28;20029;-57
2024/02/25 01:51:29;;;;;;;132.20;38.17;;;;;;;;;;4184984;28;20052;-57
2024/02/25 01:53:31;;;;;;;67.87;35.10;;;;;;;;;;4188535;28;20128;-57
2024/02/25 01:55:34;;;;;;;105.80;39.93;;;;;;;;;;4183715;28;20481;-57
2024/02/25 01:57:36;;;;;;;56.67;36.88;;;;;;;;;;4182607;28;20639;-56
2024/02/25 01:59:38;;;;;;;100.43;35.65;;;;;;;;;;4183690;28;20041;-57
2024/02/25 02:01:41;;;;;;;131.77;40.42;;;;;;;;;;4183705;28;20131;-56
2024/02/25 02:03:43;;;;;;;;;;;;;;;;;;4183702;28;20064;-56
2024/02/25 02:05:45;;;;;;;113.90;39.85;;;;;;;;;;4166016;28;19956;-57
2024/02/25 02:07:47;;;;;;;65.43;36.30;;;;;;;;;;4183614;28;20037;-57
2024/02/25 02:09:49;;;;;;;38.72;35.45;;;;;;;;;;4183383;28;20045;-55
2024/02/25 02:11:57;;;;;;;64.73;36.50;;;;;;;;;;4184096;28;20385;-55
2024/02/25 02:13:59;;;;;;;76.00;38.60;;;;;;;;;;4174037;28;20048;-55
2024/02/25 02:16:00;;;;;;;42.57;37.97;;;;;;;;;;4199937;28;20045;-56
2024/02/25 02:18:03;;;;;;;64.65;38.97;;;;;;;;;;4200006;28;20043;-56
2024/02/25 02:20:11;;;;;;;77.97;37.83;;;;;;;;;;4192445;28;20566;-55
2024/02/25 02:22:13;;;;;;;41.25;37.08;;;;;;;;;;4183127;28;20067;-56
2024/02/25 02:24:15;;;;;;;43.45;39.00;;;;;;;;;;4183114;28;20072;-55
2024/02/25 02:26:16;;;;;;;76.03;39.40;;;;;;;;;;4195936;28;20052;-56
2024/02/25 02:28:18;;;;;;;78.05;36.67;;;;;;;;;;4199584;28;20529;-56
2024/02/25 02:30:20;;;;;;;57.00;37.42;;;;;;;;;;4199855;28;20043;-55
2024/02/25 02:32:21;;;;;;;39.57;36.77;;;;;;;;;;4196091;28;20124;-55
2024/02/25 02:34:23;;;;;;;40.30;37.83;;;;;;;;;;4183037;28;20037;-56
2024/02/25 02:36:25;;;;;;;82.05;37.58;;;;;;;;;;4182802;28;20072;-56
2024/02/25 02:38:26;;;;;;;76.63;38.58;;;;;;;;;;4182972;28;20401;-56
2024/02/25 02:40:28;;;;;;;96.77;39.70;;;;;;;;;;4182846;28;20037;-56
2024/02/25 02:42:30;;;;;;;42.55;39.58;;;;;;;;;;4197363;28;20283;-55
2024/02/25 02:44:31;;;;;;;40.03;37.42;;;;;;;;;;4199235;28;20075;-55
2024/02/25 02:46:40;;;;;;;51.00;39.45;;;;;;;;;;4198469;28;20047;-55
2024/02/25 02:48:41;;;;;;;50.65;40.00;;;;;;;;;;4192166;28;20036;-55
2024/02/25 02:50:43;;;;;;;66.03;41.13;;;;;;;;;;4197965;28;20055;-56
2024/02/25 02:52:45;;;;;;;99.80;43.47;;;;;;;;;;4181021;28;20467;-55
2024/02/25 02:54:46;;;;;;;41.65;37.88;;;;;;;;;;4198972;28;20507;-55
2024/02/25 02:56:48;;;;;;;40.17;37.50;;;;;;;;;;4199268;28;20435;-55
2024/02/25 02:58:50;;;;;;;40.70;38.70;;;;;;;;;;4181287;28;20052;-55
2024/02/25 03:00:51;;;;;;;41.55;37.30;;;;;;;;;;4198554;28;20040;-55
2024/02/25 03:02:53;;;;;;;39.63;37.27;;;;;;;;;;4199069;28;20074;-55
2024/02/25 03:04:55;;;;;;;47.08;37.40;;;;;;;;;;4198934;28;20083;-55
2024/02/25 03:06:56;;;;;;;54.00;38.13;;;;;;;;;;4199030;28;20484;-55
2024/02/25 03:08:58;;;;;;;43.45;38.08;;;;;;;;;;4199067;28;20036;-55
2024/02/25 03:11:00;;;;;;;39.35;36.75;;;;;;;;;;4198930;28;20456;-55
2024/02/25 03:13:02;;;;;;;44.53;39.90;;;;;;;;;;4198925;28;20041;-55
2024/02/25 03:15:03;;;;;;;43.75;41.25;;;;;;;;;;4181076;28;20110;-56
2024/02/25 03:17:05;;;;;;;39.30;37.25;;;;;;;;;;4199016;28;20037;-56
2024/02/25 03:19:07;;;;;;;41.28;38.78;;;;;;;;;;4199093;28;20443;-55
2024/02/25 03:21:09;;;;;;;38.42;36.42;;;;;;;;;;4198923;28;20048;-56
2024/02/25 03:23:11;;;;;;;36.67;34.88;;;;;;;;;;4198884;28;20097;-55
2024/02/25 03:25:14;;;;;;;39.27;36.63;;;;;;;;;;4197273;28;20040;-54
2024/02/25 03:27:15;;;;;;;127.28;44.55;;;;;;;;;;4198756;28;20318;-55
2024/02/25 03:29:17;;;;;;;68.93;39.40;;;;;;;;;;4198742;28;20052;-56
2024/02/25 03:31:19;;;;;;;199.93;42.90;;;;;;;;;;4198542;28;20504;-56
2024/02/25 03:33:20;;;;;;;49.45;38.28;;;;;;;;;;4198571;28;20117;-55
2024/02/25 03:35:22;;;;;;;98.35;39.05;;;;;;;;;;4198666;28;20400;-56
2024/02/25 03:37:24;;;;;;;141.07;41.17;;;;;;;;;;4198567;28;20037;-55
2024/02/25 03:39:25;;;;;;;98.07;42.35;;;;;;;;;;4198543;28;20488;-56
2024/02/25 03:41:27;;;;;;;204.63;46.53;;;;;;;;;;4198534;28;20064;-55
2024/02/25 03:43:29;;;;;;;183.40;44.92;;;;;;;;;;4198712;28;20036;-55
2024/02/25 03:45:30;;;;;;;42.55;38.45;;;;;;;;;;4185930;28;20044;-56
2024/02/25 03:47:32;;;;;;;69.78;37.35;;;;;;;;;;4181902;28;20043;-55
2024/02/25 03:49:33;;;;;;;40.92;38.42;;;;;;;;;;4181839;28;20416;-56
2024/02/25 03:51:41;;;;;;;43.37;39.27;;;;;;;;;;4181978;28;20041;-55
2024/02/25 03:53:46;;;;;;;79.93;43.15;;;;;;;;;;4198149;28;20377;-55
2024/02/25 03:55:47;;;;;;;78.85;41.10;;;;;;;;;;4198259;28;20047;-56
2024/02/25 03:57:50;;;;;;;100.88;42.40;;;;;;;;;;4198223;28;20048;-54
2024/02/25 03:59:51;;;;;;;68.50;40.30;;;;;;;;;;4198080;28;20744;-55
2024/02/25 04:01:53;;;;;;;43.40;39.80;;;;;;;;;;4198189;28;20226;-55
2024/02/25 04:03:55;;;;;;;38.17;36.00;;;;;;;;;;4180292;28;20151;-56
2024/02/25 04:05:57;;;;;;;39.70;37.80;;;;;;;;;;4198355;28;20369;-55
2024/02/25 04:07:59;;;;;;;38.60;37.00;;;;;;;;;;4180318;28;20049;-55
2024/02/25 04:10:00;;;;;;;39.47;37.55;;;;;;;;;;4198125;28;20040;-55
2024/02/25 04:12:02;;;;;;;38.60;36.53;;;;;;;;;;4198070;28;20403;-56
2024/02/25 04:14:04;;;;;;;37.70;36.15;;;;;;;;;;4197979;28;20068;-56
2024/02/25 04:16:06;;;;;;;41.80;39.80;;;;;;;;;;4198287;28;20055;-56
2024/02/25 04:18:07;;;;;;;46.77;39.10;;;;;;;;;;4197798;28;20405;-56
2024/02/25 04:20:09;;;;;;;39.43;37.53;;;;;;;;;;4197934;28;20041;-56
2024/02/25 04:22:11;;;;;;;38.83;37.00;;;;;;;;;;4197978;28;20492;-56
2024/02/25 04:24:12;;;;;;;41.83;39.72;;;;;;;;;;4198057;28;20041;-55
2024/02/25 04:26:14;;;;;;;37.87;35.83;;;;;;;;;;4198046;28;20041;-55
2024/02/25 04:28:16;;;;;;;36.42;34.92;;;;;;;;;;4197939;28;20116;-57
2024/02/25 04:30:17;;;;;;;36.97;35.47;;;;;;;;;;4198006;28;20036;-55
2024/02/25 04:32:19;;;;;;;38.17;36.57;;;;;;;;;;4180181;28;20099;-55
2024/02/25 04:34:20;;;;;;;37.17;35.63;;;;;;;;;;4197806;28;20340;-55
2024/02/25 04:36:22;;;;;;;39.33;37.55;;;;;;;;;;4197629;28;20040;-54
2024/02/25 04:38:24;;;;;;;38.03;36.42;;;;;;;;;;4197627;28;20045;-55
2024/02/25 04:40:26;;;;;;;35.65;34.17;;;;;;;;;;4197562;28;20111;-55
2024/02/25 04:42:27;;;;;;;37.97;36.47;;;;;;;;;;4164072;28;20049;-56
2024/02/25 04:44:29;;;;;;;37.57;35.90;;;;;;;;;;4180886;28;20139;-55
2024/02/25 04:46:30;;;;;;;39.95;38.25;;;;;;;;;;4181111;28;20037;-55
2024/02/25 04:48:32;;;;;;;39.90;37.67;;;;;;;;;;4181030;28;20049;-55
2024/02/25 04:50:36;;;;;;;39.83;37.95;;;;;;;;;;4180860;28;20160;-54
2024/02/25 04:52:38;;;;;;;38.83;37.22;;;;;;;;;;4181074;28;20041;-56
2024/02/25 04:54:42;;;;;;;40.23;38.30;;;;;;;;;;4181196;28;20120;-55
2024/02/25 04:56:44;;;;;;;38.72;37.20;;;;;;;;;;4180801;28;20090;-54
2024/02/25 04:58:46;;;;;;;41.08;39.33;;;;;;;;;;4180837;28;20037;-54
2024/02/25 05:00:47;;;;;;;36.78;35.38;;;;;;;;;;4180962;28;20049;-55
2024/02/25 05:02:49;;;;;;;34.20;33.00;;;;;;;;;;4187412;28;20048;-54
2024/02/25 05:04:51;;;;;;;36.25;34.95;;;;;;;;;;4197217;28;20052;-54
2024/02/25 05:06:52;;;;;;;35.45;34.15;;;;;;;;;;4197488;28;20044;-55
2024/02/25 05:08:54;;;;;;;36.30;34.80;;;;;;;;;;4197477;28;20036;-55
2024/02/25 05:10:56;;;;;;;37.28;35.97;;;;;;;;;;4179790;28;20079;-56
2024/02/25 05:12:57;;;;;;;34.08;32.85;;;;;;;;;;4197189;28;20036;-55
2024/02/25 05:14:59;;;;;;;33.97;32.80;;;;;;;;;;4197396;28;20040;-56
2024/02/25 05:17:01;;;;;;;33.45;32.15;;;;;;;;;;4197356;28;20068;-56
2024/02/25 05:19:03;;;;;;;34.53;33.30;;;;;;;;;;4197252;28;20500;-55
2024/02/25 05:21:05;;;;;;;38.05;36.17;;;;;;;;;;4197139;28;20040;-55
2024/02/25 05:23:07;;;;;;;36.33;34.93;;;;;;;;;;4197133;28;20127;-56
2024/02/25 05:25:09;;;;;;;;;;;;;;;;;;4197526;28;20048;-55
2024/02/25 05:27:11;;;;;;;34.55;33.35;;;;;;;;;;4197096;28;19928;-55
2024/02/25 05:29:13;;;;;;;47.50;44.60;;;;;;;;;;4197484;28;20044;-56
2024/02/25 05:31:15;;;;;;;42.10;40.30;;;;;;;;;;4197427;28;20083;-56
2024/02/25 05:33:17;;;;;;;39.60;38.08;;;;;;;;;;4197134;28;20043;-56
2024/02/25 05:35:19;;;;;;;35.97;34.63;;;;;;;;;;4197304;28;20037;-56
2024/02/25 05:37:22;;;;;;;38.80;37.30;;;;;;;;;;4192893;28;20120;-54
2024/02/25 05:39:24;;;;;;;36.90;35.63;;;;;;;;;;4180725;28;20041;-55
2024/02/25 05:41:26;;;;;;;37.15;35.85;;;;;;;;;;4180824;28;20044;-55
2024/02/25 05:43:27;;;;;;;38.47;36.97;;;;;;;;;;4180674;28;20047;-56
2024/02/25 05:45:29;;;;;;;38.07;36.60;;;;;;;;;;4180250;28;20497;-56
2024/02/25 05:47:31;;;;;;;36.70;35.38;;;;;;;;;;4180461;28;20037;-55
2024/02/25 05:49:32;;;;;;;35.60;34.42;;;;;;;;;;4162965;28;20433;-56
2024/02/25 05:51:34;;;;;;;38.10;36.57;;;;;;;;;;4180428;28;20524;-55
2024/02/25 05:53:36;;;;;;;35.30;33.97;;;;;;;;;;4180250;28;20044;-55
2024/02/25 05:55:37;;;;;;;35.20;33.83;;;;;;;;;;4162633;28;20041;-55
2024/02/25 05:57:39;;;;;;;36.20;34.97;;;;;;;;;;4180307;28;20045;-55
2024/02/25 05:59:41;;;;;;;33.22;32.30;;;;;;;;;;4180304;28;20049;-55
2024/02/25 06:01:47;;;;;;;32.65;31.60;;;;;;;;;;4180342;28;20040;-56
2024/02/25 06:03:48;;;;;;;33.42;32.38;;;;;;;;;;4180041;28;20057;-55
2024/02/25 06:05:50;;;;;;;33.47;32.27;;;;;;;;;;4180374;28;20068;-56
2024/02/25 06:07:53;;;;;;;35.17;34.05;;;;;;;;;;4180384;28;20535;-55
2024/02/25 06:09:55;;;;;;;33.15;32.05;;;;;;;;;;4180410;28;20505;-55
2024/02/25 06:11:56;;;;;;;38.58;36.95;;;;;;;;;;4180315;28;20041;-54
2024/02/25 06:13:58;;;;;;;35.22;33.72;;;;;;;;;;4180307;28;20382;-55
2024/02/25 06:16:00;;;;;;;36.28;34.97;;;;;;;;;;4182149;28;20045;-55
2024/02/25 06:18:01;;;;;;;34.20;33.03;;;;;;;;;;4183214;28;20467;-55
2024/02/25 06:20:04;;;;;;;40.63;38.55;;;;;;;;;;4183459;28;20061;-55
2024/02/25 06:22:06;;;;;;;43.58;41.10;;;;;;;;;;4183321;28;20049;-54
2024/02/25 06:24:08;;;;;;;36.90;35.25;;;;;;;;;;4183032;28;20381;-55
2024/02/25 06:26:10;;;;;;;37.70;36.27;;;;;;;;;;4183359;28;20040;-55
2024/02/25 06:28:12;;;;;;;35.67;34.28;;;;;;;;;;4183503;28;20341;-55
2024/02/25 06:30:14;;;;;;;35.80;34.55;;;;;;;;;;4165426;28;20096;-55
2024/02/25 06:32:16;;;;;;;33.63;32.53;;;;;;;;;;4183463;28;20142;-55
2024/02/25 06:34:18;;;;;;;33.95;32.80;;;;;;;;;;4183091;28;20041;-55
2024/02/25 06:36:20;;;;;;;33.10;31.97;;;;;;;;;;4183096;28;20037;-54
2024/02/25 06:38:22;;;;;;;36.38;35.03;;;;;;;;;;4165208;28;20350;-54
2024/02/25 06:40:23;;;;;;;36.55;35.00;;;;;;;;;;4185521;28;20051;-55
2024/02/25 06:42:27;;;;;;;34.83;33.53;;;;;;;;;;4182818;28;20041;-54
2024/02/25 06:44:30;;;;;;;35.20;34.03;;;;;;;;;;4183065;28;20041;-55
2024/02/25 06:46:32;;;;;;;34.55;33.45;;;;;;;;;;4184086;28;20040;-55
2024/02/25 06:48:34;;;;;;;33.97;32.75;;;;;;;;;;4186913;28;20404;-55
2024/02/25 06:50:35;;;;;;;32.85;31.85;;;;;;;;;;4182929;28;20047;-56
2024/02/25 06:52:37;;;;;;;33.60;32.45;;;;;;;;;;4185718;28;20041;-54
2024/02/25 06:54:41;;;;;;;34.25;32.97;;;;;;;;;;4182945;28;20048;-55
2024/02/25 06:56:43;;;;;;;35.63;34.30;;;;;;;;;;4182506;28;20091;-55
2024/02/25 06:58:44;;;;;;;34.63;33.53;;;;;;;;;;4181881;28;20065;-55
2024/02/25 07:00:47;;;;;;;36.63;35.33;;;;;;;;;;4182741;28;20287;-55
2024/02/25 07:02:54;;;;;;;35.05;33.85;;;;;;;;;;4182495;28;20401;-55
2024/02/25 07:04:56;;;;;;;34.13;33.13;;;;;;;;;;4182354;28;20087;-55
2024/02/25 07:06:57;;;;;;;37.90;36.47;;;;;;;;;;4182313;28;20370;-55
2024/02/25 07:08:59;;;;;;;36.25;34.78;;;;;;;;;;4182782;28;20037;-55
2024/02/25 07:11:00;;;;;;;34.50;33.22;;;;;;;;;;4182290;28;20041;-55
2024/02/25 07:13:03;;;;;;;34.73;33.53;;;;;;;;;;4181717;28;20408;-55
2024/02/25 07:15:05;;;;;;;34.35;33.25;;;;;;;;;;4182039;28;20386;-56
2024/02/25 07:17:06;;;;;;;49.72;45.45;;;;;;;;;;4181775;28;20044;-55
2024/02/25 07:19:08;;;;;;;49.25;45.53;;;;;;;;;;4181937;28;20045;-55
2024/02/25 07:21:11;;;;;;;39.33;37.72;;;;;;;;;;4182013;28;20049;-55
2024/02/25 07:23:13;;;;;;;33.95;32.60;;;;;;;;;;4182154;28;20041;-55
2024/02/25 07:25:15;;;;;;;36.77;35.50;;;;;;;;;;4182002;28;20594;-55
2024/02/25 07:27:16;;;;;;;36.28;34.85;;;;;;;;;;4194574;28;20044;-55
2024/02/25 07:29:18;;;;;;;36.73;35.33;;;;;;;;;;4198942;28;20033;-54
2024/02/25 07:31:20;;;;;;;36.43;34.90;;;;;;;;;;4193031;28;20386;-54
2024/02/25 07:33:22;;;;;;;36.80;35.40;;;;;;;;;;4192536;28;20046;-55
2024/02/25 07:35:23;;;;;;;36.05;34.55;;;;;;;;;;4198520;28;20079;-56
2024/02/25 07:37:28;;;;;;;34.07;32.77;;;;;;;;;;4198209;28;20036;-56
2024/02/25 07:39:30;;;;;;;36.28;35.00;;;;;;;;;;4187454;28;20041;-55
2024/02/25 07:41:31;;;;;;;31.07;30.00;;;;;;;;;;4188238;28;20405;-55
2024/02/25 07:43:34;;;;;;;36.58;35.30;;;;;;;;;;4183388;28;20512;-55
2024/02/25 07:45:35;;;;;;;31.70;30.65;;;;;;;;;;4188072;28;20049;-54
2024/02/25 07:47:37;;;;;;;36.63;35.30;;;;;;;;;;4175032;28;20041;-54
2024/02/25 07:49:39;;;;;;;34.97;33.60;;;;;;;;;;4193225;28;20040;-55
2024/02/25 07:51:42;;;;;;;37.58;36.08;;;;;;;;;;4181804;28;20119;-55
2024/02/25 07:53:45;;;;;;;39.90;37.67;;;;;;;;;;4181261;28;20071;-55
2024/02/25 07:55:47;;;;;;;45.33;42.17;;;;;;;;;;4183904;28;20024;-55
2024/02/25 07:57:49;;;;;;;38.35;36.72;;;;;;;;;;4188187;28;20087;-55
2024/02/25 07:59:50;;;;;;;35.88;34.47;;;;;;;;;;4183575;28;20535;-55
2024/02/25 08:01:52;;;;;;;37.03;35.47;;;;;;;;;;4183811;28;20493;-55
2024/02/25 08:03:54;;;;;;;37.57;35.93;;;;;;;;;;4181037;28;20056;-55
2024/02/25 08:05:55;;;;;;;36.25;34.58;;;;;;;;;;4186354;28;20033;-55
2024/02/25 08:07:57;;;;;;;38.57;36.97;;;;;;;;;;4197945;28;20119;-55
2024/02/25 08:09:59;;;;;;;35.17;33.83;;;;;;;;;;4198046;28;20116;-57
2024/02/25 08:12:01;;;;;;;33.67;32.67;;;;;;;;;;4198224;28;20037;-56
2024/02/25 08:14:02;;;;;;;36.90;35.25;;;;;;;;;;4197637;28;20400;-55
2024/02/25 08:16:04;;;;;;;31.90;30.93;;;;;;;;;;4180365;28;20033;-57
2024/02/25 08:18:06;;;;;;;35.10;33.70;;;;;;;;;;4180118;28;20512;-56
2024/02/25 08:20:09;;;;;;;33.35;32.13;;;;;;;;;;4190944;28;20838;-56
2024/02/25 08:22:11;;;;;;;37.63;36.35;;;;;;;;;;4189010;28;20040;-56
2024/02/25 08:24:12;;;;;;;37.07;35.43;;;;;;;;;;4187344;28;20045;-56
2024/02/25 08:26:14;;;;;;;35.90;34.60;;;;;;;;;;4181277;28;20382;-56
2024/02/25 08:28:16;;;;;;;30.42;29.50;;;;;;;;;;4189738;28;20040;-57
2024/02/25 08:30:18;;;;;;;31.03;30.13;;;;;;;;;;4181406;28;20129;-56
2024/02/25 08:32:19;;;;;;;29.73;28.90;;;;;;;;;;4181048;28;20037;-57
2024/02/25 08:34:21;;;;;;;29.52;28.50;;;;;;;;;;4181661;28;20439;-57
2024/02/25 08:36:23;;;;;;;30.27;29.42;;;;;;;;;;4192700;28;20511;-55
2024/02/25 08:38:25;;;;;;;32.13;30.92;;;;;;;;;;4197301;28;20094;-56
2024/02/25 08:40:27;;;;;;;34.23;33.03;;;;;;;;;;4197698;28;20098;-56
2024/02/25 08:42:29;;;;;;;36.97;35.20;;;;;;;;;;4197530;28;20089;-57
2024/02/25 08:44:30;;;;;;;34.50;33.03;;;;;;;;;;4191708;28;20048;-57
2024/02/25 08:46:32;;;;;;;35.55;34.15;;;;;;;;;;4196221;28;20049;-56
2024/02/25 08:48:33;;;;;;;34.45;33.08;;;;;;;;;;4196588;28;20066;-56
2024/02/25 08:50:35;;;;;;;31.92;30.73;;;;;;;;;;4178912;28;20075;-56
2024/02/25 08:52:37;;;;;;;36.57;35.03;;;;;;;;;;4197506;28;20040;-56
2024/02/25 08:54:39;;;;;;;36.50;35.00;;;;;;;;;;4187531;28;20044;-56
2024/02/25 08:56:40;;;;;;;36.17;34.40;;;;;;;;;;4188310;28;20337;-55
2024/02/25 08:58:43;;;;;;;37.58;35.97;;;;;;;;;;4191454;28;20045;-54
2024/02/25 09:00:47;;;;;;;;;;;;;;;;;;4193284;28;20386;-55
2024/02/25 09:02:49;;;;;;;36.38;34.70;;;;;;;;;;4162759;28;19933;-56
2024/02/25 09:04:51;;;;;;;35.13;33.78;;;;;;;;;;4180101;28;20089;-55
2024/02/25 09:06:57;;;;;;;32.45;31.33;;;;;;;;;;4180630;28;20493;-55
2024/02/25 09:08:59;;;;;;;29.52;28.25;;;;;;;;;;4180279;28;20474;-56
2024/02/25 09:11:01;;;;;;;34.35;32.75;;;;;;;;;;4180542;28;20044;-56
2024/02/25 09:13:03;;;;;;;34.95;33.55;;;;;;;;;;4186799;28;20052;-55
2024/02/25 09:15:06;;;;;;;30.15;29.10;;;;;;;;;;4190454;28;20069;-56
2024/02/25 09:17:07;;;;;;;32.13;31.02;;;;;;;;;;4180664;28;20037;-55
2024/02/25 09:19:09;;;;;;;36.43;34.47;;;;;;;;;;4180209;28;20067;-55
2024/02/25 09:21:11;;;;;;;32.47;31.05;;;;;;;;;;4180272;28;20316;-56
2024/02/25 09:23:13;;;;;;;34.00;32.60;;;;;;;;;;4178670;28;20090;-55
2024/02/25 09:25:14;;;;;;;32.87;31.47;;;;;;;;;;4182569;28;20044;-56
2024/02/25 09:27:16;;;;;;;31.27;29.98;;;;;;;;;;4183234;28;20048;-56
2024/02/25 09:29:20;;;;;;;34.80;33.05;;;;;;;;;;4180397;28;20044;-56
2024/02/25 09:31:25;;;;;;;33.88;32.33;;;;;;;;;;4162672;28;20053;-56
2024/02/25 09:33:29;;;;;;;37.80;35.28;;;;;;;;;;4179914;28;20052;-56
2024/02/25 09:35:31;;;;;;;28.85;27.80;;;;;;;;;;4186991;28;20041;-56
2024/02/25 09:37:33;;;;;;;29.97;28.93;;;;;;;;;;4185748;28;20037;-56
2024/02/25 09:39:36;;;;;;;32.15;30.95;;;;;;;;;;4180428;28;20291;-55
2024/02/25 09:41:39;;;;;;;28.98;27.95;;;;;;;;;;4180997;28;20029;-55
2024/02/25 09:43:41;;;;;;;30.70;29.35;;;;;;;;;;4189450;28;20053;-54
2024/02/25 09:45:46;;;;;;;29.45;28.40;;;;;;;;;;4191036;28;20037;-55
2024/02/25 09:47:54;;;;;;;30.40;29.05;;;;;;;;;;4186005;28;20041;-56
2024/02/25 09:49:56;;;;;;;34.17;32.40;;;;;;;;;;4189117;28;20040;-56
2024/02/25 09:51:59;;;;;;;30.63;29.40;;;;;;;;;;4191736;28;20120;-56
2024/02/25 09:54:01;;;;;;;31.65;30.33;;;;;;;;;;4193421;28;20029;-55
2024/02/25 09:56:03;;;;;;;32.90;30.80;;;;;;;;;;4191978;28;20447;-56
2024/02/25 09:58:04;;;;;;;33.07;31.53;;;;;;;;;;4184478;28;20443;-55
2024/02/25 10:00:06;;;;;;;32.03;30.42;;;;;;;;;;4193692;28;20044;-55
2024/02/25 10:02:08;;;;;;;31.83;30.23;;;;;;;;;;4184433;28;20511;-55
2024/02/25 10:04:10;;;;;;;30.48;29.10;;;;;;;;;;4193762;28;20122;-55
2024/02/25 10:06:12;;;;;;;28.37;27.30;;;;;;;;;;4193177;28;20041;-55
2024/02/25 10:08:15;;;;;;;29.02;27.60;;;;;;;;;;4183385;28;20284;-55
2024/02/25 10:10:16;;;;;;;31.58;29.95;;;;;;;;;;4188537;28;20439;-56
2024/02/25 10:12:18;;;;;;;28.57;27.33;;;;;;;;;;4191005;28;20542;-56
2024/02/25 10:14:20;;;;;;;28.02;26.88;;;;;;;;;;4199531;28;20043;-56
2024/02/25 10:16:22;;;;;;;27.25;26.33;;;;;;;;;;4197929;28;20036;-56
2024/02/25 10:18:26;;;;;;;26.67;25.88;;;;;;;;;;4193826;28;20033;-56
2024/02/25 10:20:28;;;;;;;24.88;24.00;;;;;;;;;;4182814;28;20048;-56
2024/02/25 10:22:30;;;;;;;23.85;22.88;;;;;;;;;;4183239;28;20503;-57
2024/02/25 10:24:32;;;;;;;25.02;24.52;;;;;;;;;;4182930;28;20044;-56
2024/02/25 10:26:34;;;;;;;25.60;24.60;;;;;;;;;;4182625;28;20059;-56
2024/02/25 10:28:35;;;;;;;29.80;28.35;;;;;;;;;;4182963;28;20115;-57
2024/02/25 10:30:37;;;;;;;27.52;26.17;;;;;;;;;;4182958;28;20049;-56
2024/02/25 10:32:39;;;;;;;27.02;26.23;;;;;;;;;;4184767;28;20191;-56
2024/02/25 10:34:42;;;;;;;;;;;;;;;;;;4195726;28;20033;-56
2024/02/25 10:36:44;;;;;;;29.42;28.27;;;;;;;;;;4186283;28;19920;-56
2024/02/25 10:38:46;;;;;;;32.20;30.42;;;;;;;;;;4183496;28;20033;-56
2024/02/25 10:40:48;;;;;;;28.75;27.33;;;;;;;;;;4182261;28;20041;-56
2024/02/25 10:42:50;;;;;;;26.85;25.65;;;;;;;;;;4165124;28;20084;-57
2024/02/25 10:44:52;;;;;;;21.73;21.23;;;;;;;;;;4182570;28;20037;-56
2024/02/25 10:46:54;;;;;;;23.23;22.48;;;;;;;;;;4182745;28;20041;-56
2024/02/25 10:48:59;;;;;;;25.10;24.20;;;;;;;;;;4182756;28;20409;-56
2024/02/25 10:51:01;;;;;;;24.60;23.70;;;;;;;;;;4182988;28;20049;-56
2024/02/25 10:53:04;;;;;;;20.58;19.85;;;;;;;;;;4182687;28;20048;-55
2024/02/25 10:55:08;;;;;;;19.20;18.60;;;;;;;;;;4182731;28;20029;-56
2024/02/25 10:57:11;;;;;;;17.27;16.58;;;;;;;;;;4182488;28;20059;-56
2024/02/25 10:59:15;;;;;;;20.65;19.92;;;;;;;;;;4182654;28;20072;-57
2024/02/25 11:01:20;;;;;;;20.42;19.85;;;;;;;;;;4181712;28;20460;-56
2024/02/25 11:03:21;;;;;;;21.00;20.40;;;;;;;;;;4181539;28;20120;-57
2024/02/25 11:05:23;;;;;;;16.80;16.60;;;;;;;;;;4192975;28;20128;-58
2024/02/25 11:07:25;;;;;;;19.60;18.80;;;;;;;;;;4178578;28;20049;-58
2024/02/25 11:09:29;;;;;;;19.23;18.77;;;;;;;;;;4186174;28;20352;-58
2024/02/25 11:11:31;;;;;;;22.02;21.33;;;;;;;;;;4182234;28;20036;-58
2024/02/25 11:13:32;;;;;;;21.20;20.70;;;;;;;;;;4182205;28;20045;-59
2024/02/25 11:15:36;;;;;;;17.17;16.63;;;;;;;;;;4185348;28;20297;-58
2024/02/25 11:17:39;;;;;;;16.38;16.13;;;;;;;;;;4164445;28;20045;-58
2024/02/25 11:19:41;;;;;;;15.98;15.57;;;;;;;;;;4186712;28;20484;-59
2024/02/25 11:21:43;;;;;;;14.10;13.60;;;;;;;;;;4195034;28;20439;-58
2024/02/25 11:23:48;;;;;;;11.45;10.88;;;;;;;;;;4196841;28;20412;-58
2024/02/25 11:25:49;;;;;;;12.55;11.90;;;;;;;;;;4182528;28;20045;-57
2024/02/25 11:27:55;;;;;;;13.47;13.27;;;;;;;;;;4191136;28;20090;-59
2024/02/25 11:30:18;;;;;;;13.63;13.00;;;;;;;;;;4186001;28;20103;-59
2024/02/25 11:32:37;;;;;;;13.90;13.40;;;;;;;;;;4180823;28;20099;-57
2024/02/25 11:34:39;;;;;;;13.80;13.25;;;;;;;;;;4186946;28;20043;-58
2024/02/25 11:36:41;;;;;;;13.13;12.73;;;;;;;;;;4186927;28;20135;-57
2024/02/25 11:38:44;;;;;;;15.23;14.83;;;;;;;;;;4188251;28;20032;-59
2024/02/25 11:40:45;;;;;;;16.30;15.75;;;;;;;;;;4183130;28;20485;-59
2024/02/25 11:42:50;;;;;;;16.55;16.15;;;;;;;;;;4181650;28;20029;-58
2024/02/25 11:44:51;;;;;;;17.27;16.77;;;;;;;;;;4184754;28;20067;-59
2024/02/25 11:47:02;;;;;;;15.37;14.90;;;;;;;;;;4181000;28;20041;-59
2024/02/25 11:49:04;;;;;;;16.77;16.27;;;;;;;;;;4180317;28;20330;-59
2024/02/25 11:51:06;;;;;;;16.70;16.40;;;;;;;;;;4187815;28;20056;-58
2024/02/25 11:53:09;;;;;;;18.00;17.58;;;;;;;;;;4194206;28;20066;-58